createdAt,value
2022-09-23T00:00:58.685Z,12.312
2022-09-23T00:03:58.597Z,12.312
2022-09-23T00:06:58.764Z,12.312
2022-09-23T00:09:59.343Z,12.312
2022-09-23T00:12:59.477Z,12.312
2022-09-23T00:15:58.940Z,12.312
2022-09-23T00:18:58.555Z,12.312
2022-09-23T00:21:58.442Z,12.312
2022-09-23T00:24:59.135Z,12.312
2022-09-23T00:27:59.314Z,12.312
2022-09-23T00:31:00.195Z,12.312
2022-09-23T00:33:59.160Z,12.312
2022-09-23T00:36:59.236Z,12.25
2022-09-23T00:39:59.258Z,12.25
2022-09-23T00:42:59.031Z,12.25
2022-09-23T00:45:59.410Z,12.25
2022-09-23T00:48:59.546Z,12.25
2022-09-23T00:51:58.297Z,12.25
2022-09-23T00:54:58.833Z,12.25
2022-09-23T00:57:58.855Z,12.25
2022-09-23T01:00:59.052Z,12.25
2022-09-23T01:03:58.605Z,12.25
2022-09-23T01:06:58.540Z,12.25
2022-09-23T01:09:58.661Z,12.25
2022-09-23T01:12:58.338Z,12.25
2022-09-23T01:15:59.007Z,12.25
2022-09-23T01:18:58.686Z,12.187
2022-09-23T01:21:59.529Z,12.187
2022-09-23T01:24:58.928Z,12.187
2022-09-23T01:27:59.336Z,12.187
2022-09-23T01:30:59.368Z,12.187
2022-09-23T01:33:58.917Z,12.187
2022-09-23T01:36:58.690Z,12.187
2022-09-23T01:39:59.295Z,12.187
2022-09-23T01:42:59.225Z,12.187
2022-09-23T01:45:59.363Z,12.187
2022-09-23T01:48:59.205Z,12.187
2022-09-23T01:51:59.051Z,12.187
2022-09-23T01:54:58.996Z,12.187
2022-09-23T01:57:59.000Z,12.187
2022-09-23T02:00:59.057Z,12.187
2022-09-23T02:03:58.945Z,12.125
2022-09-23T02:06:58.816Z,12.125
2022-09-23T02:09:58.853Z,12.125
2022-09-23T02:12:59.159Z,12.125
2022-09-23T02:15:58.743Z,12.125
2022-09-23T02:18:58.849Z,12.125
2022-09-23T02:21:59.096Z,12.125
2022-09-23T02:24:58.866Z,12.125
2022-09-23T02:27:58.693Z,12.125
2022-09-23T02:30:59.469Z,12.125
2022-09-23T02:33:59.122Z,12.125
2022-09-23T02:36:58.460Z,12.125
2022-09-23T02:39:58.796Z,12.125
2022-09-23T02:42:58.492Z,12.125
2022-09-23T02:45:59.574Z,12.125
2022-09-23T02:48:59.304Z,12.125
2022-09-23T02:51:58.230Z,12.125
2022-09-23T02:54:58.640Z,12.062
2022-09-23T02:57:58.985Z,12.062
2022-09-23T03:00:59.503Z,12.062
2022-09-23T03:03:58.247Z,12.062
2022-09-23T03:06:59.208Z,12.062
2022-09-23T03:10:00.227Z,12.062
2022-09-23T03:12:58.661Z,12.062
2022-09-23T03:15:58.850Z,12.062
2022-09-23T03:18:58.932Z,12.062
2022-09-23T03:21:58.866Z,12.062
2022-09-23T03:24:58.697Z,12.062
2022-09-23T03:27:58.774Z,12.0
2022-09-23T03:30:58.807Z,12.0
2022-09-23T03:33:58.686Z,12.0
2022-09-23T03:36:58.862Z,12.0
2022-09-23T03:39:59.569Z,12.0
2022-09-23T03:42:58.595Z,12.0
2022-09-23T03:45:59.437Z,12.0
2022-09-23T03:48:58.512Z,12.0
2022-09-23T03:52:00.216Z,12.0
2022-09-23T03:54:59.251Z,12.0
2022-09-23T03:57:58.631Z,12.0
2022-09-23T04:00:59.400Z,12.0
2022-09-23T04:03:58.857Z,12.0
2022-09-23T04:06:59.066Z,12.0
2022-09-23T04:09:58.705Z,12.0
2022-09-23T04:12:59.039Z,12.0
2022-09-23T04:15:59.155Z,12.0
2022-09-23T04:18:59.327Z,12.0
2022-09-23T04:21:59.033Z,11.937
2022-09-23T04:24:58.996Z,11.937
2022-09-23T04:27:58.791Z,11.937
2022-09-23T04:30:58.924Z,11.937
2022-09-23T04:33:58.927Z,11.937
2022-09-23T04:36:58.713Z,11.937
2022-09-23T04:39:58.771Z,11.937
2022-09-23T04:42:59.101Z,11.937
2022-09-23T04:45:59.891Z,11.937
2022-09-23T04:48:59.647Z,11.937
2022-09-23T04:51:58.708Z,11.937
2022-09-23T04:54:59.672Z,11.937
2022-09-23T04:57:59.136Z,11.937
2022-09-23T05:01:04.369Z,11.937
2022-09-23T05:03:59.709Z,11.937
2022-09-23T05:07:02.303Z,11.937
2022-09-23T05:09:59.368Z,11.937
2022-09-23T05:12:58.679Z,11.937
2022-09-23T05:15:59.364Z,11.875
2022-09-23T05:18:59.246Z,11.875
2022-09-23T05:21:59.192Z,11.875
2022-09-23T05:24:58.446Z,11.875
2022-09-23T05:27:59.112Z,11.875
2022-09-23T05:30:59.924Z,11.875
2022-09-23T05:33:58.874Z,11.875
2022-09-23T05:36:58.841Z,11.875
2022-09-23T05:39:59.200Z,11.875
2022-09-23T05:42:59.041Z,11.875
2022-09-23T05:45:59.908Z,11.875
2022-09-23T05:49:02.495Z,11.875
2022-09-23T05:51:59.285Z,11.875
2022-09-23T05:54:58.765Z,11.875
2022-09-23T05:57:59.536Z,11.875
2022-09-23T06:00:59.391Z,11.875
2022-09-23T06:03:58.552Z,11.812
2022-09-23T06:07:03.260Z,11.812
2022-09-23T06:09:59.956Z,11.812
2022-09-23T06:12:58.455Z,11.812
2022-09-23T06:15:59.803Z,11.812
2022-09-23T06:19:04.449Z,11.812
2022-09-23T06:21:58.391Z,11.812
2022-09-23T06:24:59.349Z,11.812
2022-09-23T06:27:59.422Z,11.812
2022-09-23T06:30:59.581Z,11.812
2022-09-23T06:34:05.247Z,11.812
2022-09-23T06:36:59.723Z,11.812
2022-09-23T06:39:58.580Z,11.812
2022-09-23T06:42:58.544Z,11.812
2022-09-23T06:45:59.263Z,11.75
2022-09-23T06:48:58.537Z,11.75
2022-09-23T06:51:59.007Z,11.75
2022-09-23T06:54:58.791Z,11.75
2022-09-23T06:57:58.692Z,11.75
2022-09-23T07:00:59.729Z,11.75
2022-09-23T07:03:59.329Z,11.75
2022-09-23T07:06:58.690Z,11.75
2022-09-23T07:09:58.756Z,11.75
2022-09-23T07:12:58.922Z,11.75
2022-09-23T07:15:58.763Z,11.75
2022-09-23T07:18:58.694Z,11.75
2022-09-23T07:21:58.553Z,11.75
2022-09-23T07:24:58.981Z,11.75
2022-09-23T07:27:59.238Z,11.75
2022-09-23T07:31:00.914Z,11.75
2022-09-23T07:33:58.775Z,11.75
2022-09-23T07:36:59.154Z,11.75
2022-09-23T07:39:58.816Z,11.75
2022-09-23T07:42:58.811Z,11.75
2022-09-23T07:45:59.356Z,11.687
2022-09-23T07:48:59.300Z,11.687
2022-09-23T07:51:59.126Z,11.687
2022-09-23T07:54:58.963Z,11.687
2022-09-23T07:57:59.364Z,11.687
2022-09-23T08:00:59.298Z,11.75
2022-09-23T08:03:58.892Z,11.75
2022-09-23T08:06:59.204Z,11.687
2022-09-23T08:09:59.833Z,11.687
2022-09-23T08:12:59.612Z,11.687
2022-09-23T08:15:58.882Z,11.687
2022-09-23T08:18:59.346Z,11.687
2022-09-23T08:21:58.668Z,11.687
2022-09-23T08:24:59.499Z,11.687
2022-09-23T08:27:58.669Z,11.687
2022-09-23T08:31:00.727Z,11.687
2022-09-23T08:33:58.518Z,11.687
2022-09-23T08:36:59.531Z,11.687
2022-09-23T08:39:59.472Z,11.687
2022-09-23T08:42:58.451Z,11.687
2022-09-23T08:45:58.724Z,11.687
2022-09-23T08:48:58.473Z,11.687
2022-09-23T08:51:59.783Z,11.687
2022-09-23T08:54:58.944Z,11.687
2022-09-23T08:58:23.445Z,11.687
2022-09-23T09:00:59.174Z,11.687
2022-09-23T09:03:59.022Z,11.687
2022-09-23T09:07:12.442Z,11.687
2022-09-23T09:09:59.137Z,11.687
2022-09-23T09:12:59.072Z,11.75
2022-09-23T09:15:59.408Z,11.687
2022-09-23T09:18:59.440Z,11.687
2022-09-23T09:21:58.333Z,11.75
2022-09-23T09:24:59.466Z,11.75
2022-09-23T09:27:58.753Z,11.75
2022-09-23T09:30:59.841Z,11.75
2022-09-23T09:33:58.831Z,11.75
2022-09-23T09:37:03.388Z,11.75
2022-09-23T09:39:58.661Z,11.75
2022-09-23T09:42:58.608Z,11.75
2022-09-23T09:45:58.819Z,11.75
2022-09-23T09:48:59.620Z,11.75
2022-09-23T09:51:59.325Z,11.75
2022-09-23T09:54:58.722Z,11.75
2022-09-23T09:57:58.643Z,11.75
2022-09-23T10:00:58.981Z,11.75
2022-09-23T10:03:59.657Z,11.75
2022-09-23T10:06:59.048Z,11.75
2022-09-23T10:10:06.107Z,11.75
2022-09-23T10:12:59.048Z,11.75
2022-09-23T10:15:59.075Z,11.75
2022-09-23T10:18:59.227Z,11.812
2022-09-23T10:21:59.027Z,11.812
2022-09-23T10:24:59.452Z,11.812
2022-09-23T10:27:59.354Z,11.812
2022-09-23T10:30:59.872Z,11.812
2022-09-23T10:33:58.942Z,11.812
2022-09-23T10:36:59.719Z,11.812
2022-09-23T10:39:59.276Z,11.812
2022-09-23T10:42:59.565Z,11.812
2022-09-23T10:45:58.687Z,11.812
2022-09-23T10:48:58.845Z,11.812
2022-09-23T10:51:58.945Z,11.812
2022-09-23T10:54:58.599Z,11.875
2022-09-23T10:57:59.367Z,11.875
2022-09-23T11:00:59.828Z,11.875
2022-09-23T11:04:16.790Z,11.875
2022-09-23T11:06:59.981Z,11.875
2022-09-23T11:09:58.388Z,11.875
2022-09-23T11:12:58.425Z,11.875
2022-09-23T11:15:59.514Z,11.937
2022-09-23T11:18:59.189Z,11.937
2022-09-23T11:21:59.178Z,11.937
2022-09-23T11:24:59.140Z,11.937
2022-09-23T11:27:58.769Z,11.937
2022-09-23T11:30:59.213Z,12.0
2022-09-23T11:33:58.638Z,11.937
2022-09-23T11:36:59.361Z,12.0
2022-09-23T11:39:59.890Z,12.0
2022-09-23T11:42:58.949Z,12.0
2022-09-23T11:45:59.042Z,12.0
2022-09-23T11:48:58.757Z,12.0
2022-09-23T11:51:59.193Z,12.0
2022-09-23T11:54:58.611Z,12.0
2022-09-23T11:57:59.096Z,12.062
2022-09-23T12:01:00.773Z,12.062
2022-09-23T12:04:04.272Z,12.062
2022-09-23T12:06:58.969Z,12.062
2022-09-23T12:09:58.945Z,12.062
2022-09-23T12:12:58.941Z,12.062
2022-09-23T12:15:59.391Z,12.125
2022-09-23T12:18:58.640Z,12.125
2022-09-23T12:21:58.906Z,12.125
2022-09-23T12:24:58.886Z,12.125
2022-09-23T12:27:58.763Z,12.125
2022-09-23T12:30:59.493Z,12.125
2022-09-23T12:33:59.270Z,12.125
2022-09-23T12:36:58.213Z,12.187
2022-09-23T12:39:59.174Z,12.187
2022-09-23T12:42:59.133Z,12.187
2022-09-23T12:45:59.131Z,12.187
2022-09-23T12:48:59.381Z,12.187
2022-09-23T12:51:59.037Z,12.187
2022-09-23T12:54:59.101Z,12.187
2022-09-23T12:57:58.674Z,12.25
2022-09-23T13:00:59.634Z,12.25
2022-09-23T13:03:59.518Z,12.25
2022-09-23T13:06:59.138Z,12.25
2022-09-23T13:09:58.896Z,12.312
2022-09-23T13:12:59.346Z,12.312
2022-09-23T13:15:59.697Z,12.312
2022-09-23T13:18:58.902Z,12.312
2022-09-23T13:21:58.763Z,12.312
2022-09-23T13:24:59.455Z,12.375
2022-09-23T13:27:59.147Z,12.375
2022-09-23T13:30:58.517Z,12.375
2022-09-23T13:33:59.371Z,12.375
2022-09-23T13:36:58.978Z,12.437
2022-09-23T13:39:59.379Z,12.437
2022-09-23T13:42:58.407Z,12.437
2022-09-23T13:45:59.350Z,12.437
2022-09-23T13:48:59.257Z,12.437
2022-09-23T13:51:58.597Z,12.437
2022-09-23T13:54:59.099Z,12.5
2022-09-23T13:57:59.636Z,12.5
2022-09-23T14:00:59.712Z,12.5
2022-09-23T14:03:59.359Z,12.5
2022-09-23T14:06:58.962Z,12.562
2022-09-23T14:09:59.613Z,12.562
2022-09-23T14:12:59.148Z,12.562
2022-09-23T14:15:59.916Z,12.562
2022-09-23T14:18:58.769Z,12.562
2022-09-23T14:21:59.921Z,12.625
2022-09-23T14:24:59.483Z,12.625
2022-09-23T14:28:00.600Z,12.625
2022-09-23T14:30:59.587Z,12.625
2022-09-23T14:33:59.644Z,12.625
2022-09-23T14:36:59.566Z,12.625
2022-09-23T14:39:59.352Z,12.625
2022-09-23T14:42:59.574Z,12.687
2022-09-23T14:45:58.897Z,12.687
2022-09-23T14:48:59.768Z,12.687
2022-09-23T14:51:58.612Z,12.75
2022-09-23T14:54:59.589Z,12.75
2022-09-23T14:57:59.205Z,12.75
2022-09-23T15:00:59.236Z,12.75
2022-09-23T15:03:59.178Z,12.75
2022-09-23T15:06:58.710Z,12.75
2022-09-23T15:09:59.165Z,12.812
2022-09-23T15:12:58.590Z,12.812
2022-09-23T15:15:59.064Z,12.812
2022-09-23T15:18:59.382Z,12.812
2022-09-23T15:21:58.859Z,12.812
2022-09-23T15:24:59.171Z,12.812
2022-09-23T15:27:58.801Z,12.875
2022-09-23T15:30:59.007Z,12.875
2022-09-23T15:33:58.858Z,12.875
2022-09-23T15:36:59.463Z,12.875
2022-09-23T15:39:59.658Z,12.875
2022-09-23T15:42:59.016Z,12.937
2022-09-23T15:45:59.658Z,12.937
2022-09-23T15:48:59.655Z,12.937
2022-09-23T15:51:58.677Z,12.937
2022-09-23T15:54:59.865Z,12.937
2022-09-23T15:57:59.676Z,12.937
2022-09-23T16:01:00.563Z,13.0
2022-09-23T16:03:58.909Z,12.937
2022-09-23T16:06:59.316Z,13.0
2022-09-23T16:09:59.746Z,13.0
2022-09-23T16:12:59.243Z,13.0
2022-09-23T16:15:59.503Z,13.0
2022-09-23T16:18:59.084Z,13.0
2022-09-23T16:21:58.995Z,13.0
2022-09-23T16:24:58.895Z,13.0
2022-09-23T16:27:59.057Z,13.0
2022-09-23T16:30:59.594Z,13.0
2022-09-23T16:33:59.252Z,13.0
2022-09-23T16:36:59.806Z,13.062
2022-09-23T16:39:59.034Z,13.0
2022-09-23T16:42:58.868Z,13.062
2022-09-23T16:45:59.376Z,13.062
2022-09-23T16:48:58.757Z,13.062
2022-09-23T16:51:58.823Z,13.062
2022-09-23T16:54:59.259Z,13.062
2022-09-23T16:57:58.824Z,13.062
2022-09-23T17:00:59.579Z,13.062
2022-09-23T17:03:58.925Z,13.062
2022-09-23T17:06:58.836Z,13.062
2022-09-23T17:09:58.918Z,13.062
2022-09-23T17:12:59.352Z,13.062
2022-09-23T17:16:01.197Z,13.062
2022-09-23T17:18:59.328Z,13.062
2022-09-23T17:21:58.930Z,13.125
2022-09-23T17:24:59.237Z,13.125
2022-09-23T17:27:58.353Z,13.125
2022-09-23T17:30:59.558Z,13.125
2022-09-23T17:33:59.038Z,13.125
2022-09-23T17:36:59.104Z,13.125
2022-09-23T17:39:59.325Z,13.125
2022-09-23T17:42:58.850Z,13.125
2022-09-23T17:45:59.005Z,13.125
2022-09-23T17:48:59.393Z,13.125
2022-09-23T17:51:58.488Z,13.125
2022-09-23T17:54:58.720Z,13.125
2022-09-23T17:57:58.975Z,13.125
2022-09-23T18:01:25.665Z,13.125
2022-09-23T18:03:59.621Z,13.125
2022-09-23T18:06:58.833Z,13.125
2022-09-23T18:09:58.807Z,13.125
2022-09-23T18:12:59.545Z,13.125
2022-09-23T18:15:58.685Z,13.125
2022-09-23T18:18:58.901Z,13.125
2022-09-23T18:21:59.304Z,13.125
2022-09-23T18:24:59.469Z,13.125
2022-09-23T18:27:58.530Z,13.125
2022-09-23T18:30:59.396Z,13.125
2022-09-23T18:33:59.215Z,13.125
2022-09-23T18:36:58.974Z,13.125
2022-09-23T18:39:59.479Z,13.125
2022-09-23T18:42:58.554Z,13.125
2022-09-23T18:45:59.829Z,13.125
2022-09-23T18:48:58.542Z,13.125
2022-09-23T18:51:59.245Z,13.125
2022-09-23T18:54:58.826Z,13.125
2022-09-23T18:57:58.681Z,13.125
2022-09-23T19:00:59.103Z,13.125
2022-09-23T19:03:59.225Z,13.125
2022-09-23T19:06:59.227Z,13.125
2022-09-23T19:10:00.160Z,13.125
2022-09-23T19:12:58.942Z,13.125
2022-09-23T19:15:58.997Z,13.125
2022-09-23T19:18:59.055Z,13.125
2022-09-23T19:21:59.724Z,13.125
2022-09-23T19:25:00.525Z,13.125
2022-09-23T19:27:59.605Z,13.125
2022-09-23T19:30:59.426Z,13.125
2022-09-23T19:33:59.714Z,13.125
2022-09-23T19:36:58.944Z,13.125
2022-09-23T19:39:59.604Z,13.125
2022-09-23T19:42:58.985Z,13.125
2022-09-23T19:45:59.042Z,13.125
2022-09-23T19:48:59.206Z,13.125
2022-09-23T19:51:58.462Z,13.125
2022-09-23T19:54:59.590Z,13.125
2022-09-23T19:57:59.141Z,13.125
2022-09-23T20:00:59.698Z,13.125
2022-09-23T20:03:58.792Z,13.125
2022-09-23T20:06:59.161Z,13.125
2022-09-23T20:09:59.555Z,13.125
2022-09-23T20:12:58.825Z,13.125
2022-09-23T20:15:58.944Z,13.125
2022-09-23T20:18:59.259Z,13.125
2022-09-23T20:21:59.011Z,13.125
2022-09-23T20:24:59.062Z,13.125
2022-09-23T20:27:59.022Z,13.125
2022-09-23T20:30:58.943Z,13.125
2022-09-23T20:33:59.228Z,13.125
2022-09-23T20:36:58.726Z,13.125
2022-09-23T20:39:58.595Z,13.125
2022-09-23T20:42:59.701Z,13.125
2022-09-23T20:45:58.736Z,13.125
2022-09-23T20:48:58.467Z,13.062
2022-09-23T20:51:59.285Z,13.062
2022-09-23T20:54:59.434Z,13.062
2022-09-23T20:57:58.688Z,13.062
2022-09-23T21:00:59.583Z,13.062
2022-09-23T21:03:58.641Z,13.062
2022-09-23T21:06:59.440Z,13.062
2022-09-23T21:09:59.144Z,13.062
2022-09-23T21:12:59.103Z,13.062
2022-09-23T21:15:59.711Z,13.062
2022-09-23T21:18:59.180Z,13.062
2022-09-23T21:21:58.962Z,13.062
2022-09-23T21:25:26.910Z,13.062
2022-09-23T21:27:58.925Z,13.062
2022-09-23T21:30:59.793Z,13.062
2022-09-23T21:33:59.571Z,13.062
2022-09-23T21:36:59.156Z,13.062
2022-09-23T21:39:59.115Z,13.062
2022-09-23T21:42:59.919Z,13.062
2022-09-23T21:45:59.850Z,13.062
2022-09-23T21:48:59.116Z,13.062
2022-09-23T21:51:58.975Z,13.062
2022-09-23T21:54:58.930Z,13.0
2022-09-23T21:57:59.242Z,13.0
2022-09-23T22:01:00.621Z,13.0
2022-09-23T22:03:59.296Z,13.0
2022-09-23T22:06:58.590Z,13.0
2022-09-23T22:09:58.896Z,13.0
2022-09-23T22:12:59.070Z,13.0
2022-09-23T22:15:59.157Z,13.0
2022-09-23T22:18:59.220Z,13.0
2022-09-23T22:21:58.214Z,13.0
2022-09-23T22:24:58.095Z,13.0
2022-09-23T22:27:59.230Z,13.0
2022-09-23T22:30:59.031Z,13.0
2022-09-23T22:33:59.001Z,13.0
2022-09-23T22:36:58.580Z,13.0
2022-09-23T22:39:58.794Z,13.0
2022-09-23T22:42:59.325Z,13.0
2022-09-23T22:45:59.131Z,13.0
2022-09-23T22:48:58.775Z,13.0
2022-09-23T22:51:58.726Z,13.0
2022-09-23T22:54:59.077Z,12.937
2022-09-23T22:58:06.811Z,13.0
2022-09-23T23:00:58.640Z,13.0
2022-09-23T23:03:59.331Z,13.0
2022-09-23T23:06:59.109Z,13.0
2022-09-23T23:09:58.436Z,13.0
2022-09-23T23:12:59.181Z,12.937
2022-09-23T23:15:59.044Z,12.937
2022-09-23T23:18:58.745Z,12.937
2022-09-23T23:21:59.216Z,12.937
2022-09-23T23:24:58.325Z,12.937
2022-09-23T23:27:58.291Z,12.937
2022-09-23T23:30:58.918Z,12.937
2022-09-23T23:33:59.295Z,12.937
2022-09-23T23:36:58.358Z,12.937
2022-09-23T23:39:58.628Z,12.937
2022-09-23T23:42:59.487Z,12.937
2022-09-23T23:45:59.237Z,12.937
2022-09-23T23:48:58.943Z,12.937
2022-09-23T23:51:58.979Z,12.937
2022-09-23T23:54:58.965Z,12.937
2022-09-23T23:57:58.199Z,12.937
